sensor_id;sensor_type;location;lat;lon;timestamp;temperature;humidity
17815;DHT22;9031;50.974;11.330;2023-08-12T00:00:47;17.70;99.90
17815;DHT22;9031;50.974;11.330;2023-08-12T00:03:12;17.70;99.90
17815;DHT22;9031;50.974;11.330;2023-08-12T00:05:38;17.50;99.90
17815;DHT22;9031;50.974;11.330;2023-08-12T00:08:05;17.70;99.90
17815;DHT22;9031;50.974;11.330;2023-08-12T00:10:31;17.80;99.90
17815;DHT22;9031;50.974;11.330;2023-08-12T00:12:57;17.70;99.90
17815;DHT22;9031;50.974;11.330;2023-08-12T00:15:22;17.60;99.90
17815;DHT22;9031;50.974;11.330;2023-08-12T00:17:48;17.60;99.90
17815;DHT22;9031;50.974;11.330;2023-08-12T00:20:13;17.60;99.90
17815;DHT22;9031;50.974;11.330;2023-08-12T00:22:39;17.70;99.90
17815;DHT22;9031;50.974;11.330;2023-08-12T00:25:06;17.80;99.90
17815;DHT22;9031;50.974;11.330;2023-08-12T00:27:32;17.80;99.90
17815;DHT22;9031;50.974;11.330;2023-08-12T00:29:57;17.80;99.90
17815;DHT22;9031;50.974;11.330;2023-08-12T00:32:23;17.80;99.90
17815;DHT22;9031;50.974;11.330;2023-08-12T00:34:48;17.80;99.90
17815;DHT22;9031;50.974;11.330;2023-08-12T00:37:14;17.80;99.90
17815;DHT22;9031;50.974;11.330;2023-08-12T00:39:39;17.80;99.90
17815;DHT22;9031;50.974;11.330;2023-08-12T00:42:05;17.70;99.90
17815;DHT22;9031;50.974;11.330;2023-08-12T00:44:30;17.70;99.90
17815;DHT22;9031;50.974;11.330;2023-08-12T00:46:56;17.70;99.90
17815;DHT22;9031;50.974;11.330;2023-08-12T00:49:22;17.70;99.90
17815;DHT22;9031;50.974;11.330;2023-08-12T00:51:49;17.60;99.90
17815;DHT22;9031;50.974;11.330;2023-08-12T00:54:16;17.60;99.90
17815;DHT22;9031;50.974;11.330;2023-08-12T00:56:42;17.60;99.90
17815;DHT22;9031;50.974;11.330;2023-08-12T00:59:09;17.60;99.90
17815;DHT22;9031;50.974;11.330;2023-08-12T01:01:37;17.50;99.90
17815;DHT22;9031;50.974;11.330;2023-08-12T01:04:03;17.50;99.90
17815;DHT22;9031;50.974;11.330;2023-08-12T01:06:29;17.50;99.90
17815;DHT22;9031;50.974;11.330;2023-08-12T01:08:55;17.50;99.90
17815;DHT22;9031;50.974;11.330;2023-08-12T01:11:26;17.40;99.90
17815;DHT22;9031;50.974;11.330;2023-08-12T01:14:07;17.40;99.90
17815;DHT22;9031;50.974;11.330;2023-08-12T01:16:38;17.40;99.90
17815;DHT22;9031;50.974;11.330;2023-08-12T01:19:06;17.20;99.90
17815;DHT22;9031;50.974;11.330;2023-08-12T01:21:33;17.20;99.90
17815;DHT22;9031;50.974;11.330;2023-08-12T01:24:00;17.30;99.90
17815;DHT22;9031;50.974;11.330;2023-08-12T01:26:25;17.00;99.90
17815;DHT22;9031;50.974;11.330;2023-08-12T01:28:51;17.00;99.90
17815;DHT22;9031;50.974;11.330;2023-08-12T01:34:07;16.90;99.90
17815;DHT22;9031;50.974;11.330;2023-08-12T01:36:39;16.90;99.90
17815;DHT22;9031;50.974;11.330;2023-08-12T01:39:05;17.10;99.90
17815;DHT22;9031;50.974;11.330;2023-08-12T01:41:31;17.10;99.90
17815;DHT22;9031;50.974;11.330;2023-08-12T01:43:57;17.10;99.90
17815;DHT22;9031;50.974;11.330;2023-08-12T01:46:22;17.10;99.90
17815;DHT22;9031;50.974;11.330;2023-08-12T01:48:48;17.20;99.90
17815;DHT22;9031;50.974;11.330;2023-08-12T01:51:14;17.20;99.90
17815;DHT22;9031;50.974;11.330;2023-08-12T01:53:39;17.20;99.90
17815;DHT22;9031;50.974;11.330;2023-08-12T01:56:05;17.20;99.90
17815;DHT22;9031;50.974;11.330;2023-08-12T01:58:30;17.30;99.90
17815;DHT22;9031;50.974;11.330;2023-08-12T02:00:56;17.30;99.90
17815;DHT22;9031;50.974;11.330;2023-08-12T02:03:21;17.20;99.90
17815;DHT22;9031;50.974;11.330;2023-08-12T02:05:47;17.10;99.90
17815;DHT22;9031;50.974;11.330;2023-08-12T02:08:13;16.90;99.90
17815;DHT22;9031;50.974;11.330;2023-08-12T02:10:38;16.90;99.90
17815;DHT22;9031;50.974;11.330;2023-08-12T02:13:04;16.90;99.90
17815;DHT22;9031;50.974;11.330;2023-08-12T02:15:30;16.90;99.90
17815;DHT22;9031;50.974;11.330;2023-08-12T02:17:55;16.90;99.90
17815;DHT22;9031;50.974;11.330;2023-08-12T02:20:21;16.90;99.90
17815;DHT22;9031;50.974;11.330;2023-08-12T02:22:46;16.90;99.90
17815;DHT22;9031;50.974;11.330;2023-08-12T02:25:12;16.80;99.90
17815;DHT22;9031;50.974;11.330;2023-08-12T02:27:37;16.90;99.90
17815;DHT22;9031;50.974;11.330;2023-08-12T02:30:03;16.90;99.90
17815;DHT22;9031;50.974;11.330;2023-08-12T02:32:29;16.90;99.90
17815;DHT22;9031;50.974;11.330;2023-08-12T02:34:55;16.90;99.90
17815;DHT22;9031;50.974;11.330;2023-08-12T02:37:20;16.80;99.90
17815;DHT22;9031;50.974;11.330;2023-08-12T02:39:46;16.80;99.90
17815;DHT22;9031;50.974;11.330;2023-08-12T02:42:12;16.90;99.90
17815;DHT22;9031;50.974;11.330;2023-08-12T02:44:37;16.90;99.90
17815;DHT22;9031;50.974;11.330;2023-08-12T02:47:03;16.90;99.90
17815;DHT22;9031;50.974;11.330;2023-08-12T02:49:28;16.90;99.90
17815;DHT22;9031;50.974;11.330;2023-08-12T02:51:54;16.90;99.90
17815;DHT22;9031;50.974;11.330;2023-08-12T02:54:19;16.90;99.90
17815;DHT22;9031;50.974;11.330;2023-08-12T02:56:45;16.70;99.90
17815;DHT22;9031;50.974;11.330;2023-08-12T02:59:10;16.90;99.90
17815;DHT22;9031;50.974;11.330;2023-08-12T03:01:36;16.90;99.90
17815;DHT22;9031;50.974;11.330;2023-08-12T03:04:01;17.00;99.90
17815;DHT22;9031;50.974;11.330;2023-08-12T03:06:27;17.10;99.90
17815;DHT22;9031;50.974;11.330;2023-08-12T03:08:52;17.00;99.90
17815;DHT22;9031;50.974;11.330;2023-08-12T03:11:17;16.90;99.90
17815;DHT22;9031;50.974;11.330;2023-08-12T03:13:44;16.90;99.90
17815;DHT22;9031;50.974;11.330;2023-08-12T03:16:13;16.90;99.90
17815;DHT22;9031;50.974;11.330;2023-08-12T03:18:39;16.80;99.90
17815;DHT22;9031;50.974;11.330;2023-08-12T03:21:08;16.80;99.90
17815;DHT22;9031;50.974;11.330;2023-08-12T03:23:35;16.90;99.90
17815;DHT22;9031;50.974;11.330;2023-08-12T03:26:01;16.80;99.90
17815;DHT22;9031;50.974;11.330;2023-08-12T03:28:26;16.90;99.90
17815;DHT22;9031;50.974;11.330;2023-08-12T03:30:52;16.90;99.90
17815;DHT22;9031;50.974;11.330;2023-08-12T03:33:19;16.90;99.90
17815;DHT22;9031;50.974;11.330;2023-08-12T03:35:45;17.00;99.90
17815;DHT22;9031;50.974;11.330;2023-08-12T03:38:11;17.00;99.90
17815;DHT22;9031;50.974;11.330;2023-08-12T03:40:40;17.00;99.90
17815;DHT22;9031;50.974;11.330;2023-08-12T03:43:06;17.00;99.90
17815;DHT22;9031;50.974;11.330;2023-08-12T03:45:32;16.90;99.90
17815;DHT22;9031;50.974;11.330;2023-08-12T03:47:58;16.90;99.90
17815;DHT22;9031;50.974;11.330;2023-08-12T03:50:24;17.00;99.90
17815;DHT22;9031;50.974;11.330;2023-08-12T03:52:49;16.90;99.90
17815;DHT22;9031;50.974;11.330;2023-08-12T03:55:15;17.00;99.90
17815;DHT22;9031;50.974;11.330;2023-08-12T03:57:40;17.00;99.90
17815;DHT22;9031;50.974;11.330;2023-08-12T04:00:06;17.00;99.90
17815;DHT22;9031;50.974;11.330;2023-08-12T04:02:33;17.10;99.90
17815;DHT22;9031;50.974;11.330;2023-08-12T04:04:59;17.10;99.90
17815;DHT22;9031;50.974;11.330;2023-08-12T04:07:25;17.20;99.90
17815;DHT22;9031;50.974;11.330;2023-08-12T04:09:52;17.20;99.90
17815;DHT22;9031;50.974;11.330;2023-08-12T04:12:17;17.10;99.90
17815;DHT22;9031;50.974;11.330;2023-08-12T04:14:43;17.20;99.90
17815;DHT22;9031;50.974;11.330;2023-08-12T04:17:08;17.20;99.90
17815;DHT22;9031;50.974;11.330;2023-08-12T04:19:34;17.30;99.90
17815;DHT22;9031;50.974;11.330;2023-08-12T04:21:59;17.30;99.90
17815;DHT22;9031;50.974;11.330;2023-08-12T04:24:25;17.30;99.90
17815;DHT22;9031;50.974;11.330;2023-08-12T04:26:50;17.30;99.90
17815;DHT22;9031;50.974;11.330;2023-08-12T04:29:16;17.30;99.90
17815;DHT22;9031;50.974;11.330;2023-08-12T04:31:41;17.20;99.90
17815;DHT22;9031;50.974;11.330;2023-08-12T04:34:07;17.20;99.90
17815;DHT22;9031;50.974;11.330;2023-08-12T04:36:32;17.20;99.90
17815;DHT22;9031;50.974;11.330;2023-08-12T04:38:58;17.30;99.90
17815;DHT22;9031;50.974;11.330;2023-08-12T04:41:23;17.40;99.90
17815;DHT22;9031;50.974;11.330;2023-08-12T04:43:49;17.40;99.90
17815;DHT22;9031;50.974;11.330;2023-08-12T04:46:15;17.60;99.90
17815;DHT22;9031;50.974;11.330;2023-08-12T04:48:40;17.70;99.90
17815;DHT22;9031;50.974;11.330;2023-08-12T04:51:06;17.70;99.90
17815;DHT22;9031;50.974;11.330;2023-08-12T04:53:32;17.80;99.90
17815;DHT22;9031;50.974;11.330;2023-08-12T04:55:57;17.90;99.90
17815;DHT22;9031;50.974;11.330;2023-08-12T04:58:23;18.00;99.90
17815;DHT22;9031;50.974;11.330;2023-08-12T05:00:49;18.00;99.90
17815;DHT22;9031;50.974;11.330;2023-08-12T05:03:15;18.10;99.90
17815;DHT22;9031;50.974;11.330;2023-08-12T05:05:40;18.10;99.90
17815;DHT22;9031;50.974;11.330;2023-08-12T05:08:06;18.20;99.90
17815;DHT22;9031;50.974;11.330;2023-08-12T05:10:31;18.30;99.90
17815;DHT22;9031;50.974;11.330;2023-08-12T05:12:58;18.40;99.90
17815;DHT22;9031;50.974;11.330;2023-08-12T05:15:23;18.40;99.90
17815;DHT22;9031;50.974;11.330;2023-08-12T05:17:49;18.50;99.90
17815;DHT22;9031;50.974;11.330;2023-08-12T05:20:14;18.60;99.90
17815;DHT22;9031;50.974;11.330;2023-08-12T05:22:40;18.60;99.90
17815;DHT22;9031;50.974;11.330;2023-08-12T05:25:06;18.60;99.90
17815;DHT22;9031;50.974;11.330;2023-08-12T05:27:31;18.60;99.90
17815;DHT22;9031;50.974;11.330;2023-08-12T05:29:57;18.70;99.90
17815;DHT22;9031;50.974;11.330;2023-08-12T05:32:22;18.70;99.90
17815;DHT22;9031;50.974;11.330;2023-08-12T05:34:51;18.80;99.90
17815;DHT22;9031;50.974;11.330;2023-08-12T05:37:17;18.80;99.90
17815;DHT22;9031;50.974;11.330;2023-08-12T05:39:43;18.80;99.90
17815;DHT22;9031;50.974;11.330;2023-08-12T05:42:08;18.90;99.90
17815;DHT22;9031;50.974;11.330;2023-08-12T05:44:34;18.90;99.90
17815;DHT22;9031;50.974;11.330;2023-08-12T05:46:59;18.80;99.90
17815;DHT22;9031;50.974;11.330;2023-08-12T05:49:25;18.90;99.90
17815;DHT22;9031;50.974;11.330;2023-08-12T05:51:50;18.90;99.90
17815;DHT22;9031;50.974;11.330;2023-08-12T05:54:16;19.10;99.90
17815;DHT22;9031;50.974;11.330;2023-08-12T05:56:41;19.20;99.90
17815;DHT22;9031;50.974;11.330;2023-08-12T05:59:07;19.20;99.90
17815;DHT22;9031;50.974;11.330;2023-08-12T06:01:32;19.40;99.90
17815;DHT22;9031;50.974;11.330;2023-08-12T06:03:58;19.50;99.90
17815;DHT22;9031;50.974;11.330;2023-08-12T06:06:23;19.60;99.90
17815;DHT22;9031;50.974;11.330;2023-08-12T06:08:49;19.60;99.90
17815;DHT22;9031;50.974;11.330;2023-08-12T06:11:14;19.70;99.90
17815;DHT22;9031;50.974;11.330;2023-08-12T06:13:40;19.80;99.90
17815;DHT22;9031;50.974;11.330;2023-08-12T06:16:05;19.80;99.90
17815;DHT22;9031;50.974;11.330;2023-08-12T06:18:31;19.80;99.90
17815;DHT22;9031;50.974;11.330;2023-08-12T06:20:56;19.90;99.90
17815;DHT22;9031;50.974;11.330;2023-08-12T06:23:22;20.00;99.90
17815;DHT22;9031;50.974;11.330;2023-08-12T06:25:47;20.20;99.90
17815;DHT22;9031;50.974;11.330;2023-08-12T06:28:13;20.30;99.90
17815;DHT22;9031;50.974;11.330;2023-08-12T06:30:38;20.50;99.90
17815;DHT22;9031;50.974;11.330;2023-08-12T06:33:04;20.60;99.90
17815;DHT22;9031;50.974;11.330;2023-08-12T06:35:29;20.80;99.90
17815;DHT22;9031;50.974;11.330;2023-08-12T06:37:55;20.90;99.90
17815;DHT22;9031;50.974;11.330;2023-08-12T06:40:20;20.90;99.90
17815;DHT22;9031;50.974;11.330;2023-08-12T06:42:46;21.00;99.90
17815;DHT22;9031;50.974;11.330;2023-08-12T06:45:11;21.10;99.90
17815;DHT22;9031;50.974;11.330;2023-08-12T06:47:37;21.20;99.90
17815;DHT22;9031;50.974;11.330;2023-08-12T06:50:03;21.20;99.90
17815;DHT22;9031;50.974;11.330;2023-08-12T06:52:28;21.20;99.90
17815;DHT22;9031;50.974;11.330;2023-08-12T06:54:54;21.10;99.90
17815;DHT22;9031;50.974;11.330;2023-08-12T06:57:19;21.10;99.90
17815;DHT22;9031;50.974;11.330;2023-08-12T06:59:45;21.20;99.90
17815;DHT22;9031;50.974;11.330;2023-08-12T07:02:11;21.20;99.90
17815;DHT22;9031;50.974;11.330;2023-08-12T07:04:37;21.20;99.90
17815;DHT22;9031;50.974;11.330;2023-08-12T07:07:02;21.00;99.90
17815;DHT22;9031;50.974;11.330;2023-08-12T07:09:28;20.90;99.90
17815;DHT22;9031;50.974;11.330;2023-08-12T07:11:53;20.80;99.90
17815;DHT22;9031;50.974;11.330;2023-08-12T07:14:19;20.80;99.90
17815;DHT22;9031;50.974;11.330;2023-08-12T07:16:44;20.70;99.90
17815;DHT22;9031;50.974;11.330;2023-08-12T07:19:10;20.60;99.90
17815;DHT22;9031;50.974;11.330;2023-08-12T07:21:36;20.50;99.90
17815;DHT22;9031;50.974;11.330;2023-08-12T07:24:01;20.60;99.90
17815;DHT22;9031;50.974;11.330;2023-08-12T07:26:27;20.60;99.90
17815;DHT22;9031;50.974;11.330;2023-08-12T07:28:52;20.70;99.90
17815;DHT22;9031;50.974;11.330;2023-08-12T07:31:18;20.80;99.90
17815;DHT22;9031;50.974;11.330;2023-08-12T07:33:43;20.80;99.90
17815;DHT22;9031;50.974;11.330;2023-08-12T07:36:09;20.70;99.90
17815;DHT22;9031;50.974;11.330;2023-08-12T07:38:34;20.70;99.90
17815;DHT22;9031;50.974;11.330;2023-08-12T07:41:00;20.80;99.90
17815;DHT22;9031;50.974;11.330;2023-08-12T07:43:26;20.90;99.90
17815;DHT22;9031;50.974;11.330;2023-08-12T07:45:54;21.00;99.90
17815;DHT22;9031;50.974;11.330;2023-08-12T07:48:20;21.20;99.90
17815;DHT22;9031;50.974;11.330;2023-08-12T07:50:46;21.20;99.90
17815;DHT22;9031;50.974;11.330;2023-08-12T07:53:15;21.20;99.90
17815;DHT22;9031;50.974;11.330;2023-08-12T07:55:44;21.10;99.90
17815;DHT22;9031;50.974;11.330;2023-08-12T07:58:10;21.20;99.90
17815;DHT22;9031;50.974;11.330;2023-08-12T08:00:35;21.30;99.90
17815;DHT22;9031;50.974;11.330;2023-08-12T08:03:01;21.40;99.90
17815;DHT22;9031;50.974;11.330;2023-08-12T08:05:26;21.40;99.90
17815;DHT22;9031;50.974;11.330;2023-08-12T08:07:52;21.40;99.90
17815;DHT22;9031;50.974;11.330;2023-08-12T08:10:17;21.40;99.90
17815;DHT22;9031;50.974;11.330;2023-08-12T08:12:43;21.40;99.90
17815;DHT22;9031;50.974;11.330;2023-08-12T08:15:09;21.40;99.90
17815;DHT22;9031;50.974;11.330;2023-08-12T08:17:34;21.40;99.90
17815;DHT22;9031;50.974;11.330;2023-08-12T08:20:00;21.30;99.90
17815;DHT22;9031;50.974;11.330;2023-08-12T08:22:25;21.40;99.90
17815;DHT22;9031;50.974;11.330;2023-08-12T08:24:51;21.40;99.90
17815;DHT22;9031;50.974;11.330;2023-08-12T08:27:16;21.50;99.90
17815;DHT22;9031;50.974;11.330;2023-08-12T08:29:42;21.60;99.90
17815;DHT22;9031;50.974;11.330;2023-08-12T08:32:08;21.80;99.90
17815;DHT22;9031;50.974;11.330;2023-08-12T08:34:34;21.90;99.90
17815;DHT22;9031;50.974;11.330;2023-08-12T08:36:59;21.90;99.90
17815;DHT22;9031;50.974;11.330;2023-08-12T08:39:25;21.90;99.90
17815;DHT22;9031;50.974;11.330;2023-08-12T08:41:51;22.00;99.90
17815;DHT22;9031;50.974;11.330;2023-08-12T08:44:22;22.00;99.90
17815;DHT22;9031;50.974;11.330;2023-08-12T08:46:51;21.90;99.90
17815;DHT22;9031;50.974;11.330;2023-08-12T08:49:17;22.00;99.90
17815;DHT22;9031;50.974;11.330;2023-08-12T08:51:43;22.00;99.90
17815;DHT22;9031;50.974;11.330;2023-08-12T08:54:12;22.10;99.90
17815;DHT22;9031;50.974;11.330;2023-08-12T08:56:37;22.00;99.90
17815;DHT22;9031;50.974;11.330;2023-08-12T08:59:04;22.00;99.90
17815;DHT22;9031;50.974;11.330;2023-08-12T09:01:29;21.80;99.90
17815;DHT22;9031;50.974;11.330;2023-08-12T09:03:57;21.50;99.90
17815;DHT22;9031;50.974;11.330;2023-08-12T09:06:24;21.50;99.90
17815;DHT22;9031;50.974;11.330;2023-08-12T09:08:52;21.40;99.90
17815;DHT22;9031;50.974;11.330;2023-08-12T09:11:18;21.50;99.90
17815;DHT22;9031;50.974;11.330;2023-08-12T09:13:44;21.60;99.90
17815;DHT22;9031;50.974;11.330;2023-08-12T09:16:10;21.50;99.90
17815;DHT22;9031;50.974;11.330;2023-08-12T09:18:37;21.50;99.90
17815;DHT22;9031;50.974;11.330;2023-08-12T09:21:03;21.70;99.90
17815;DHT22;9031;50.974;11.330;2023-08-12T09:23:42;21.90;99.90
17815;DHT22;9031;50.974;11.330;2023-08-12T09:26:15;22.10;99.90
17815;DHT22;9031;50.974;11.330;2023-08-12T09:28:44;22.10;99.90
17815;DHT22;9031;50.974;11.330;2023-08-12T09:31:42;22.10;99.90
17815;DHT22;9031;50.974;11.330;2023-08-12T09:34:07;22.20;99.90
17815;DHT22;9031;50.974;11.330;2023-08-12T09:36:33;21.90;99.90
17815;DHT22;9031;50.974;11.330;2023-08-12T09:38:59;21.80;99.90
17815;DHT22;9031;50.974;11.330;2023-08-12T09:41:28;21.70;99.90
17815;DHT22;9031;50.974;11.330;2023-08-12T09:43:55;21.70;99.90
17815;DHT22;9031;50.974;11.330;2023-08-12T09:46:22;22.20;99.90
17815;DHT22;9031;50.974;11.330;2023-08-12T09:48:50;22.70;99.90
17815;DHT22;9031;50.974;11.330;2023-08-12T09:51:17;23.30;99.90
17815;DHT22;9031;50.974;11.330;2023-08-12T09:53:42;24.20;99.90
17815;DHT22;9031;50.974;11.330;2023-08-12T09:56:11;24.80;99.90
17815;DHT22;9031;50.974;11.330;2023-08-12T09:58:37;25.40;99.90
17815;DHT22;9031;50.974;11.330;2023-08-12T10:01:04;25.50;99.90
17815;DHT22;9031;50.974;11.330;2023-08-12T10:03:33;25.30;99.90
17815;DHT22;9031;50.974;11.330;2023-08-12T10:05:59;25.10;99.90
17815;DHT22;9031;50.974;11.330;2023-08-12T10:08:27;25.30;99.90
17815;DHT22;9031;50.974;11.330;2023-08-12T10:10:53;25.40;99.90
17815;DHT22;9031;50.974;11.330;2023-08-12T10:13:20;25.40;99.90
17815;DHT22;9031;50.974;11.330;2023-08-12T10:15:46;25.20;99.90
17815;DHT22;9031;50.974;11.330;2023-08-12T10:18:12;25.60;99.90
17815;DHT22;9031;50.974;11.330;2023-08-12T10:20:39;25.70;99.90
17815;DHT22;9031;50.974;11.330;2023-08-12T10:23:05;26.00;99.90
17815;DHT22;9031;50.974;11.330;2023-08-12T10:25:32;26.00;99.90
17815;DHT22;9031;50.974;11.330;2023-08-12T10:28:01;26.00;99.90
17815;DHT22;9031;50.974;11.330;2023-08-12T10:30:30;26.20;99.90
17815;DHT22;9031;50.974;11.330;2023-08-12T10:32:58;26.20;99.90
17815;DHT22;9031;50.974;11.330;2023-08-12T10:35:40;26.10;99.90
17815;DHT22;9031;50.974;11.330;2023-08-12T10:38:06;26.00;99.90
17815;DHT22;9031;50.974;11.330;2023-08-12T10:40:32;25.90;99.90
17815;DHT22;9031;50.974;11.330;2023-08-12T10:42:57;25.90;99.90
17815;DHT22;9031;50.974;11.330;2023-08-12T10:45:22;25.80;99.90
17815;DHT22;9031;50.974;11.330;2023-08-12T10:50:36;25.80;99.90
17815;DHT22;9031;50.974;11.330;2023-08-12T10:53:22;26.10;99.90
17815;DHT22;9031;50.974;11.330;2023-08-12T10:55:49;26.60;99.90
17815;DHT22;9031;50.974;11.330;2023-08-12T10:58:26;27.30;99.90
17815;DHT22;9031;50.974;11.330;2023-08-12T11:00:56;29.00;99.90
17815;DHT22;9031;50.974;11.330;2023-08-12T11:03:23;31.20;99.90
17815;DHT22;9031;50.974;11.330;2023-08-12T11:05:48;33.20;99.90
17815;DHT22;9031;50.974;11.330;2023-08-12T11:08:14;32.90;98.10
17815;DHT22;9031;50.974;11.330;2023-08-12T11:10:40;32.00;99.20
17815;DHT22;9031;50.974;11.330;2023-08-12T11:13:05;32.70;97.20
17815;DHT22;9031;50.974;11.330;2023-08-12T11:15:35;34.60;94.70
17815;DHT22;9031;50.974;11.330;2023-08-12T11:18:16;36.00;90.00
17815;DHT22;9031;50.974;11.330;2023-08-12T11:20:42;35.90;87.40
17815;DHT22;9031;50.974;11.330;2023-08-12T11:23:09;35.80;84.60
17815;DHT22;9031;50.974;11.330;2023-08-12T11:25:37;36.20;82.90
17815;DHT22;9031;50.974;11.330;2023-08-12T11:28:04;35.20;86.00
17815;DHT22;9031;50.974;11.330;2023-08-12T11:30:30;35.20;84.20
17815;DHT22;9031;50.974;11.330;2023-08-12T11:32:56;34.40;87.20
17815;DHT22;9031;50.974;11.330;2023-08-12T11:35:23;33.90;90.40
17815;DHT22;9031;50.974;11.330;2023-08-12T11:37:51;34.80;87.30
17815;DHT22;9031;50.974;11.330;2023-08-12T11:40:21;33.80;86.50
17815;DHT22;9031;50.974;11.330;2023-08-12T11:42:49;32.90;91.10
17815;DHT22;9031;50.974;11.330;2023-08-12T11:45:18;32.40;91.60
17815;DHT22;9031;50.974;11.330;2023-08-12T11:47:44;32.70;91.90
17815;DHT22;9031;50.974;11.330;2023-08-12T11:50:11;34.10;90.00
17815;DHT22;9031;50.974;11.330;2023-08-12T11:52:38;35.70;87.70
17815;DHT22;9031;50.974;11.330;2023-08-12T11:55:05;37.40;81.70
17815;DHT22;9031;50.974;11.330;2023-08-12T11:57:31;35.20;84.40
17815;DHT22;9031;50.974;11.330;2023-08-12T12:00:11;35.50;82.70
17815;DHT22;9031;50.974;11.330;2023-08-12T12:02:45;35.30;84.00
17815;DHT22;9031;50.974;11.330;2023-08-12T12:05:11;34.30;85.00
17815;DHT22;9031;50.974;11.330;2023-08-12T12:07:37;32.90;89.30
17815;DHT22;9031;50.974;11.330;2023-08-12T12:10:04;32.10;90.20
17815;DHT22;9031;50.974;11.330;2023-08-12T12:12:33;31.30;91.20
17815;DHT22;9031;50.974;11.330;2023-08-12T12:15:00;31.90;91.30
17815;DHT22;9031;50.974;11.330;2023-08-12T12:17:26;33.90;88.00
17815;DHT22;9031;50.974;11.330;2023-08-12T12:19:56;35.20;83.30
17815;DHT22;9031;50.974;11.330;2023-08-12T12:22:30;33.90;86.10
17815;DHT22;9031;50.974;11.330;2023-08-12T12:24:58;31.80;88.90
17815;DHT22;9031;50.974;11.330;2023-08-12T12:27:24;31.10;91.50
17815;DHT22;9031;50.974;11.330;2023-08-12T12:29:50;30.60;92.10
17815;DHT22;9031;50.974;11.330;2023-08-12T12:32:18;30.40;92.60
17815;DHT22;9031;50.974;11.330;2023-08-12T12:34:44;30.30;93.00
17815;DHT22;9031;50.974;11.330;2023-08-12T12:37:10;30.20;93.90
17815;DHT22;9031;50.974;11.330;2023-08-12T12:39:35;30.40;94.10
17815;DHT22;9031;50.974;11.330;2023-08-12T12:42:02;30.90;92.80
17815;DHT22;9031;50.974;11.330;2023-08-12T12:44:27;31.20;92.80
17815;DHT22;9031;50.974;11.330;2023-08-12T12:46:53;32.00;91.40
17815;DHT22;9031;50.974;11.330;2023-08-12T12:49:19;31.90;91.00
17815;DHT22;9031;50.974;11.330;2023-08-12T12:51:45;32.10;91.40
17815;DHT22;9031;50.974;11.330;2023-08-12T12:54:10;32.50;88.80
17815;DHT22;9031;50.974;11.330;2023-08-12T12:56:36;32.40;89.20
17815;DHT22;9031;50.974;11.330;2023-08-12T12:59:01;32.00;90.30
17815;DHT22;9031;50.974;11.330;2023-08-12T13:01:27;31.40;91.30
17815;DHT22;9031;50.974;11.330;2023-08-12T13:03:52;31.00;91.90
17815;DHT22;9031;50.974;11.330;2023-08-12T13:06:18;30.80;92.40
17815;DHT22;9031;50.974;11.330;2023-08-12T13:08:43;30.70;92.20
17815;DHT22;9031;50.974;11.330;2023-08-12T13:11:09;30.50;92.60
17815;DHT22;9031;50.974;11.330;2023-08-12T13:13:34;30.50;93.20
17815;DHT22;9031;50.974;11.330;2023-08-12T13:16:00;31.20;92.70
17815;DHT22;9031;50.974;11.330;2023-08-12T13:18:25;31.50;92.10
17815;DHT22;9031;50.974;11.330;2023-08-12T13:20:51;30.80;92.80
17815;DHT22;9031;50.974;11.330;2023-08-12T13:23:16;30.40;93.40
17815;DHT22;9031;50.974;11.330;2023-08-12T13:25:42;30.10;94.50
17815;DHT22;9031;50.974;11.330;2023-08-12T13:28:08;30.00;94.80
17815;DHT22;9031;50.974;11.330;2023-08-12T13:30:33;29.80;94.90
17815;DHT22;9031;50.974;11.330;2023-08-12T13:32:59;29.70;95.50
17815;DHT22;9031;50.974;11.330;2023-08-12T13:35:24;29.40;95.90
17815;DHT22;9031;50.974;11.330;2023-08-12T13:37:50;29.40;95.50
17815;DHT22;9031;50.974;11.330;2023-08-12T13:40:18;29.20;95.90
17815;DHT22;9031;50.974;11.330;2023-08-12T13:42:44;29.00;96.20
17815;DHT22;9031;50.974;11.330;2023-08-12T13:45:11;29.00;96.60
17815;DHT22;9031;50.974;11.330;2023-08-12T13:47:37;28.90;97.20
17815;DHT22;9031;50.974;11.330;2023-08-12T13:50:03;28.90;97.80
17815;DHT22;9031;50.974;11.330;2023-08-12T13:52:28;28.70;97.40
17815;DHT22;9031;50.974;11.330;2023-08-12T13:54:54;28.70;97.90
17815;DHT22;9031;50.974;11.330;2023-08-12T13:57:19;28.50;98.30
17815;DHT22;9031;50.974;11.330;2023-08-12T13:59:45;28.30;99.10
17815;DHT22;9031;50.974;11.330;2023-08-12T14:02:11;28.10;99.50
17815;DHT22;9031;50.974;11.330;2023-08-12T14:04:36;28.00;99.90
17815;DHT22;9031;50.974;11.330;2023-08-12T14:07:06;27.80;99.90
17815;DHT22;9031;50.974;11.330;2023-08-12T14:09:31;27.70;99.90
17815;DHT22;9031;50.974;11.330;2023-08-12T14:11:57;27.60;99.90
17815;DHT22;9031;50.974;11.330;2023-08-12T14:14:24;27.50;99.90
17815;DHT22;9031;50.974;11.330;2023-08-12T14:16:53;27.50;99.90
17815;DHT22;9031;50.974;11.330;2023-08-12T14:19:18;27.30;99.90
17815;DHT22;9031;50.974;11.330;2023-08-12T14:21:44;27.30;99.90
17815;DHT22;9031;50.974;11.330;2023-08-12T14:24:09;27.10;99.90
17815;DHT22;9031;50.974;11.330;2023-08-12T14:26:35;27.00;99.90
17815;DHT22;9031;50.974;11.330;2023-08-12T14:29:01;26.70;99.90
17815;DHT22;9031;50.974;11.330;2023-08-12T14:31:26;26.30;99.90
17815;DHT22;9031;50.974;11.330;2023-08-12T14:33:52;25.60;99.90
17815;DHT22;9031;50.974;11.330;2023-08-12T14:36:18;25.00;99.90
17815;DHT22;9031;50.974;11.330;2023-08-12T14:38:43;24.40;99.90
17815;DHT22;9031;50.974;11.330;2023-08-12T14:41:09;23.80;99.90
17815;DHT22;9031;50.974;11.330;2023-08-12T14:43:34;23.40;99.90
17815;DHT22;9031;50.974;11.330;2023-08-12T14:46:00;23.00;99.90
17815;DHT22;9031;50.974;11.330;2023-08-12T14:48:25;22.60;99.90
17815;DHT22;9031;50.974;11.330;2023-08-12T14:50:51;22.40;99.90
17815;DHT22;9031;50.974;11.330;2023-08-12T14:53:16;22.20;99.90
17815;DHT22;9031;50.974;11.330;2023-08-12T14:55:42;21.70;99.90
17815;DHT22;9031;50.974;11.330;2023-08-12T14:58:07;21.40;99.90
17815;DHT22;9031;50.974;11.330;2023-08-12T15:00:33;21.30;99.90
17815;DHT22;9031;50.974;11.330;2023-08-12T15:02:59;21.20;99.90
17815;DHT22;9031;50.974;11.330;2023-08-12T15:05:25;21.20;99.90
17815;DHT22;9031;50.974;11.330;2023-08-12T15:07:50;21.10;99.90
17815;DHT22;9031;50.974;11.330;2023-08-12T15:10:16;21.00;99.90
17815;DHT22;9031;50.974;11.330;2023-08-12T15:12:41;21.00;99.90
17815;DHT22;9031;50.974;11.330;2023-08-12T15:15:07;21.10;99.90
17815;DHT22;9031;50.974;11.330;2023-08-12T15:17:32;21.20;99.90
17815;DHT22;9031;50.974;11.330;2023-08-12T15:19:58;21.30;99.90
17815;DHT22;9031;50.974;11.330;2023-08-12T15:22:24;21.30;99.90
17815;DHT22;9031;50.974;11.330;2023-08-12T15:24:49;21.20;99.90
17815;DHT22;9031;50.974;11.330;2023-08-12T15:27:15;21.20;99.90
17815;DHT22;9031;50.974;11.330;2023-08-12T15:29:40;21.20;99.90